DucheSS Of Scandinavia — OUZI2 — position and weather

sailwx.info

Track history (hours):
 
Tides and Currents Weather Stations Pressure Air Temp Water Temp Dewpoint Dewpoint Depression Visibility Wind Speed Wind Dir Waves Ship Positions

DucheSS Of Scandinavia

Operator: DFDS A/S

Last reported at 2017-Aug-17 03:29 UTC. Time now 2017-Aug-17 03:39 UTC.
Position N 59°06' E 010°14'.

Length 134 m; draft 5.4 m.

Type: Passenger vessel. MMSI: 219002929.

Date/timePositionNaut miles runAvg speedWind from/ knotsBaromVisibWave heightAir tempDewpointWater temp
2017-Aug-17 03:29N 59°06' E 010°14'0 0.0
2017-Aug-17 02:59N 59°06' E 010°14'0 0.0
2017-Aug-17 02:30N 59°06' E 010°14'0 0.0
2017-Aug-17 02:00N 59°06' E 010°14'0 0.0
2017-Aug-17 01:30N 59°06' E 010°14'0 0.0
2017-Aug-17 00:58N 59°06' E 010°14'0 0.0
2017-Aug-17 00:25N 59°06' E 010°14'0 0.0
2017-Aug-16 23:58N 59°06' E 010°14'0 0.0
2017-Aug-16 23:29N 59°06' E 010°14'0 0.0
2017-Aug-16 22:59N 59°06' E 010°14'0 0.0
2017-Aug-16 22:29N 59°06' E 010°14'0 0.0
2017-Aug-16 22:00N 59°06' E 010°14'0 0.0
2017-Aug-16 21:30N 59°06' E 010°14'0 0.0
2017-Aug-16 21:00N 59°06' E 010°14'0 0.0
2017-Aug-16 20:25N 59°06' E 010°14'0 0.0
2017-Aug-16 19:58N 59°06' E 010°14'0 0.2
2017-Aug-16 19:30N 59°06' E 010°14'1 2.3
2017-Aug-16 18:55N 59°08' E 010°14'4 8.7
2017-Aug-16 18:30N 59°04' E 010°15'714.2
2017-Aug-16 18:00N 59°01' E 010°27'815.8
2017-Aug-16 17:31N 59°01' E 010°42'815.3
2017-Aug-16 17:00N 59°00' E 010°57'715.0
2017-Aug-16 16:31N 58°56' E 011°09'1 1.3
2017-Aug-16 16:00N 58°56' E 011°10'4 7.1
2017-Aug-16 15:30N 58°57' E 011°04'714.7
2017-Aug-16 15:01N 59°01' E 010°52'715.0
2017-Aug-16 14:31N 59°01' E 010°37'816.0
2017-Aug-16 14:00N 59°01' E 010°21'713.4
2017-Aug-16 13:30N 59°06' E 010°14'1 2.3
2017-Aug-16 12:58N 59°08' E 010°14'0 0.2
2017-Aug-16 12:31N 59°07' E 010°14'611.1
2017-Aug-16 12:01N 59°02' E 010°16'714.3
2017-Aug-16 11:30N 59°00' E 010°29'714.2
2017-Aug-16 11:01N 59°01' E 010°43'714.1
2017-Aug-16 10:31N 59°00' E 010°57'714.8
2017-Aug-16 10:00N 58°56' E 011°08'1 2.0
2017-Aug-16 09:30N 58°56' E 011°10'0 0.0
2017-Aug-16 09:01N 58°56' E 011°10'612.2
2017-Aug-16 08:30N 58°59' E 010°60'815.3
2017-Aug-16 08:01N 59°02' E 010°46'815.7
2017-Aug-16 07:30N 59°00' E 010°31'815.2
2017-Aug-16 07:00N 59°02' E 010°16'611.0
2017-Aug-16 06:28N 59°08' E 010°14'0 0.0
2017-Aug-16 06:00N 59°08' E 010°14'1 2.6
2017-Aug-16 05:27N 59°06' E 010°14'0 0.0
2017-Aug-16 05:00N 59°06' E 010°14'0 0.0
2017-Aug-16 04:28N 59°06' E 010°14'0 0.0
2017-Aug-16 03:58N 59°06' E 010°14'0 0.0
2017-Aug-16 03:28N 59°06' E 010°14'0 0.0
2017-Aug-16 02:53N 59°06' E 010°14'0 0.0
2017-Aug-16 02:29N 59°06' E 010°14'0 0.0
2017-Aug-16 01:59N 59°06' E 010°14'0 0.0
2017-Aug-16 01:24N 59°06' E 010°14'0 0.0
2017-Aug-16 00:54N 59°06' E 010°14'0 0.0
2017-Aug-16 00:30N 59°06' E 010°14'0 0.0
2017-Aug-15 23:52N 59°06' E 010°14'0 0.0
2017-Aug-15 23:28N 59°06' E 010°14'0 0.0
2017-Aug-15 22:55N 59°06' E 010°14'0 0.0
2017-Aug-15 22:26N 59°06' E 010°14'0 0.0
2017-Aug-15 21:59N 59°06' E 010°14'0 0.0
2017-Aug-15 21:23N 59°06' E 010°14'0 0.0
2017-Aug-15 21:00N 59°06' E 010°14'0 0.0
2017-Aug-15 20:30N 59°06' E 010°14'0 0.0
2017-Aug-15 19:57N 59°06' E 010°14'1 2.8
2017-Aug-15 19:30N 59°07' E 010°14'0 0.4
2017-Aug-15 19:01N 59°08' E 010°14'3 6.4
2017-Aug-15 18:30N 59°04' E 010°15'713.5
2017-Aug-15 18:00N 59°01' E 010°26'815.8
2017-Aug-15 17:31N 59°01' E 010°41'815.5
2017-Aug-15 17:01N 59°00' E 010°56'815.8
2017-Aug-15 16:30N 58°56' E 011°09'1 1.5
2017-Aug-15 16:00N 58°56' E 011°10'4 7.8
2017-Aug-15 15:30N 58°57' E 011°03'815.2
2017-Aug-15 15:00N 59°01' E 010°50'815.5
2017-Aug-15 14:30N 59°01' E 010°35'815.4
2017-Aug-15 14:00N 59°01' E 010°21'612.6
2017-Aug-15 13:30N 59°06' E 010°14'1 2.6
2017-Aug-15 13:00N 59°08' E 010°14'0 0.1
2017-Aug-15 12:30N 59°08' E 010°14'510.8
2017-Aug-15 12:01N 59°02' E 010°15'713.6
2017-Aug-15 11:30N 59°01' E 010°28'714.4
2017-Aug-15 11:00N 59°02' E 010°42'714.6
2017-Aug-15 10:30N 59°00' E 010°56'814.9
2017-Aug-15 10:00N 58°56' E 011°08'1 2.0
2017-Aug-15 09:30N 58°56' E 011°10'0 0.0
2017-Aug-15 09:01N 58°56' E 011°10'510.8
2017-Aug-15 08:30N 58°59' E 011°01'714.9
2017-Aug-15 08:00N 59°02' E 010°48'815.2
2017-Aug-15 07:30N 59°01' E 010°33'815.6
2017-Aug-15 07:00N 59°01' E 010°18'612.3
2017-Aug-15 06:30N 59°07' E 010°14'0 0.8
2017-Aug-15 06:00N 59°08' E 010°14'1 2.9
2017-Aug-15 05:30N 59°06' E 010°14'0 0.1
2017-Aug-15 05:00N 59°06' E 010°14'0 0.0
2017-Aug-15 04:30N 59°06' E 010°14'0 0.0
2017-Aug-15 04:00N 59°06' E 010°14'0 0.0
2017-Aug-15 03:25N 59°06' E 010°14'0 0.0
2017-Aug-15 02:58N 59°06' E 010°14'0 0.0
2017-Aug-15 02:28N 59°06' E 010°14'0 0.0
2017-Aug-15 01:59N 59°06' E 010°14'0 0.0
2017-Aug-15 01:26N 59°06' E 010°14'0 0.0
2017-Aug-15 00:59N 59°06' E 010°14'0 0.0
2017-Aug-15 00:30N 59°06' E 010°14'0 0.0
2017-Aug-15 00:00N 59°06' E 010°14'0 0.0
2017-Aug-14 23:30N 59°06' E 010°14'0 0.0
2017-Aug-14 22:58N 59°06' E 010°14'0 0.0
2017-Aug-14 22:28N 59°06' E 010°14'0 0.0
2017-Aug-14 21:58N 59°06' E 010°14'0 0.0
2017-Aug-14 21:23N 59°06' E 010°14'0 0.0
2017-Aug-14 20:59N 59°06' E 010°14'0 0.0
2017-Aug-14 20:26N 59°06' E 010°14'0 0.0
2017-Aug-14 20:00N 59°06' E 010°14'0 0.6
2017-Aug-14 19:30N 59°06' E 010°14'1 2.3
2017-Aug-14 19:01N 59°08' E 010°14'4 7.8
2017-Aug-14 18:30N 59°04' E 010°15'714.2
2017-Aug-14 18:01N 59°01' E 010°27'815.9
2017-Aug-14 17:31N 59°01' E 010°43'815.8
2017-Aug-14 17:01N 59°00' E 010°58'714.4
2017-Aug-14 16:30N 58°56' E 011°10'0 0.6
2017-Aug-14 16:01N 58°56' E 011°10'3 5.4
2017-Aug-14 15:30N 58°56' E 011°05'714.4
2017-Aug-14 15:01N 59°01' E 010°54'816.1
2017-Aug-14 14:30N 59°01' E 010°38'816.4
2017-Aug-14 14:00N 59°01' E 010°22'713.5
2017-Aug-14 13:31N 59°06' E 010°14'1 2.9
2017-Aug-14 13:00N 59°08' E 010°14'0 0.1
2017-Aug-14 12:30N 59°08' E 010°14'611.1
2017-Aug-14 12:01N 59°02' E 010°16'714.0
2017-Aug-14 11:30N 59°01' E 010°29'714.9
2017-Aug-14 11:01N 59°02' E 010°43'714.8
2017-Aug-14 10:31N 59°00' E 010°57'714.5
2017-Aug-14 10:00N 58°56' E 011°09'1 1.4
2017-Aug-14 09:30N 58°56' E 011°10'0 0.0
2017-Aug-14 09:00N 58°56' E 011°10'611.1
2017-Aug-14 08:30N 58°59' E 011°01'815.3
2017-Aug-14 08:01N 59°02' E 010°47'815.2
2017-Aug-14 07:31N 59°01' E 010°33'816.0
2017-Aug-14 07:00N 59°01' E 010°17'612.3
2017-Aug-14 06:30N 59°07' E 010°14'0 0.5
2017-Aug-14 06:00N 59°08' E 010°14'1 2.8
2017-Aug-14 05:31N 59°06' E 010°14'0 0.1
2017-Aug-14 04:59N 59°06' E 010°14'0 0.0
2017-Aug-14 04:27N 59°06' E 010°14'0 0.0
2017-Aug-14 04:00N 59°06' E 010°14'0 0.0
2017-Aug-14 03:27N 59°06' E 010°14'0 0.0
2017-Aug-14 02:58N 59°06' E 010°14'0 0.0
2017-Aug-14 02:28N 59°06' E 010°14'0 0.0
2017-Aug-14 01:58N 59°06' E 010°14'0 0.0
2017-Aug-14 01:29N 59°06' E 010°14'0 0.0
2017-Aug-14 00:59N 59°06' E 010°14'0 0.0
2017-Aug-14 00:29N 59°06' E 010°14'0 0.0
2017-Aug-14 00:00N 59°06' E 010°14'0 0.0
2017-Aug-13 23:30N 59°06' E 010°14'0 0.0
2017-Aug-13 23:00N 59°06' E 010°14'0 0.0
2017-Aug-13 22:28N 59°06' E 010°14'0 0.0
2017-Aug-13 21:58N 59°06' E 010°14'0 0.0
2017-Aug-13 21:28N 59°06' E 010°14'0 0.0
2017-Aug-13 20:59N 59°06' E 010°14'0 0.0
2017-Aug-13 20:29N 59°06' E 010°14'0 0.0
2017-Aug-13 19:59N 59°06' E 010°14'1 2.0
2017-Aug-13 19:30N 59°07' E 010°14'1 1.0
2017-Aug-13 19:00N 59°08' E 010°14'5 9.6
2017-Aug-13 18:30N 59°03' E 010°15'815.2
2017-Aug-13 18:00N 59°01' E 010°29'816.7
2017-Aug-13 17:30N 59°02' E 010°45'816.1
2017-Aug-13 17:00N 58°59' E 011°00'612.1
2017-Aug-13 16:31N 58°56' E 011°10'0 0.0
2017-Aug-13 16:01N 58°56' E 011°10'4 7.0
2017-Aug-13 15:31N 58°57' E 011°04'815.4
2017-Aug-13 15:01N 59°01' E 010°51'815.8
2017-Aug-13 14:31N 59°01' E 010°36'816.1
2017-Aug-13 14:01N 59°01' E 010°20'612.6
2017-Aug-13 13:30N 59°07' E 010°14'1 2.1
2017-Aug-13 13:01N 59°08' E 010°14'0 0.0
2017-Aug-13 12:31N 59°08' E 010°14'5 9.4
2017-Aug-13 12:01N 59°03' E 010°15'713.6
2017-Aug-13 11:31N 59°01' E 010°28'815.1
2017-Aug-13 11:01N 59°02' E 010°42'815.4
2017-Aug-13 10:30N 59°00' E 010°57'715.0
2017-Aug-13 10:01N 58°56' E 011°09'1 1.6
2017-Aug-13 09:30N 58°56' E 011°10'0 0.1
2017-Aug-13 09:00N 58°56' E 011°10'612.2
2017-Aug-13 08:31N 58°59' E 011°00'815.7
2017-Aug-13 08:01N 59°02' E 010°46'815.4
2017-Aug-13 07:31N 59°00' E 010°31'714.6
2017-Aug-13 07:01N 59°01' E 010°17'612.4
2017-Aug-13 06:31N 59°07' E 010°14'0 0.4
2017-Aug-13 06:01N 59°08' E 010°14'1 2.9
2017-Aug-13 05:31N 59°06' E 010°14'0 0.1
2017-Aug-13 04:58N 59°06' E 010°14'0 0.0
2017-Aug-13 04:28N 59°06' E 010°14'0 0.0
2017-Aug-13 03:59N 59°06' E 010°14'0 0.0
2017-Aug-13 03:29N 59°06' E 010°14'0 0.0
2017-Aug-13 02:59N 59°06' E 010°14'0 0.0
2017-Aug-13 02:30N 59°06' E 010°14'0 0.0
2017-Aug-13 02:00N 59°06' E 010°14'0 0.0
2017-Aug-13 01:30N 59°06' E 010°14'0 0.0
2017-Aug-13 00:58N 59°06' E 010°14'0 0.0
2017-Aug-13 00:28N 59°06' E 010°14'0 0.0
2017-Aug-12 23:58N 59°06' E 010°14'0 0.0
2017-Aug-12 23:29N 59°06' E 010°14'0 0.0
2017-Aug-12 22:59N 59°06' E 010°14'0 0.0
2017-Aug-12 22:29N 59°06' E 010°14'0 0.0
2017-Aug-12 22:00N 59°06' E 010°14'0 0.0
2017-Aug-12 21:30N 59°06' E 010°14'0 0.0
2017-Aug-12 21:00N 59°06' E 010°14'0 0.0
2017-Aug-12 20:28N 59°06' E 010°14'0 0.0
2017-Aug-12 19:58N 59°06' E 010°14'0 0.7
2017-Aug-12 19:30N 59°06' E 010°14'1 2.2
2017-Aug-12 19:00N 59°08' E 010°14'4 7.5
2017-Aug-12 18:31N 59°04' E 010°15'713.4
2017-Aug-12 18:01N 59°01' E 010°26'815.3
2017-Aug-12 17:31N 59°01' E 010°41'815.3
2017-Aug-12 17:01N 59°00' E 010°56'815.8
2017-Aug-12 16:31N 58°56' E 011°08'1 1.8
2017-Aug-12 16:01N 58°56' E 011°10'3 6.8
2017-Aug-12 15:31N 58°57' E 011°04'815.0
2017-Aug-12 15:01N 59°01' E 010°52'815.5
2017-Aug-12 14:30N 59°01' E 010°37'816.0
2017-Aug-12 14:01N 59°01' E 010°21'612.8
2017-Aug-12 13:31N 59°06' E 010°14'1 2.8
2017-Aug-12 13:00N 59°08' E 010°14'0 0.0
2017-Aug-12 12:31N 59°08' E 010°14'5 9.9
2017-Aug-12 12:01N 59°03' E 010°15'714.1
2017-Aug-12 11:31N 59°01' E 010°29'715.0
2017-Aug-12 11:01N 59°02' E 010°43'715.0
2017-Aug-12 10:30N 59°00' E 010°57'714.9
2017-Aug-12 10:01N 58°56' E 011°09'1 1.0
2017-Aug-12 09:31N 58°56' E 011°10'0 0.0
2017-Aug-12 09:01N 58°56' E 011°10'5 9.9
2017-Aug-12 08:31N 58°58' E 011°02'815.7
2017-Aug-12 08:01N 59°02' E 010°48'816.3
2017-Aug-12 07:30N 59°01' E 010°32'816.2
2017-Aug-12 07:01N 59°02' E 010°16'612.0
2017-Aug-12 06:30N 59°07' E 010°14'0 0.3
2017-Aug-12 06:00N 59°08' E 010°14'0 0.7
2017-Aug-12 05:30N 59°07' E 010°14'1 2.1
2017-Aug-12 04:58N 59°06' E 010°14'0 0.0
2017-Aug-12 04:29N 59°06' E 010°14'0 0.0
2017-Aug-12 03:59N 59°06' E 010°14'0 0.0
2017-Aug-12 03:29N 59°06' E 010°14'0 0.0
2017-Aug-12 03:00N 59°06' E 010°14'0 0.0
2017-Aug-12 02:30N 59°06' E 010°14'0 0.0
2017-Aug-12 02:00N 59°06' E 010°14'0 0.0
2017-Aug-12 01:28N 59°06' E 010°14'0 0.0
2017-Aug-12 00:58N 59°06' E 010°14'0 0.0
2017-Aug-12 00:28N 59°06' E 010°14'0 0.0
2017-Aug-11 23:59N 59°06' E 010°14'0 0.0
2017-Aug-11 23:29N 59°06' E 010°14'0 0.0
2017-Aug-11 22:59N 59°06' E 010°14'0 0.0
2017-Aug-11 22:30N 59°06' E 010°14'0 0.0
2017-Aug-11 22:00N 59°06' E 010°14'0 0.0
2017-Aug-11 21:30N 59°06' E 010°14'0 0.0
2017-Aug-11 20:58N 59°06' E 010°14'0 0.0
2017-Aug-11 20:28N 59°06' E 010°14'0 0.0
2017-Aug-11 20:01N 59°06' E 010°14'1 1.6
2017-Aug-11 19:30N 59°07' E 010°14'1 1.3
2017-Aug-11 19:00N 59°08' E 010°14'4 7.6
2017-Aug-11 18:30N 59°04' E 010°15'713.7
2017-Aug-11 18:01N 59°01' E 010°27'815.2
2017-Aug-11 17:30N 59°01' E 010°42'815.4
2017-Aug-11 17:01N 59°00' E 010°57'815.7
2017-Aug-11 16:31N 58°56' E 011°09'1 1.2
2017-Aug-11 16:01N 58°56' E 011°10'3 5.9
2017-Aug-11 15:30N 58°57' E 011°05'815.4
2017-Aug-11 15:01N 59°01' E 010°52'815.9
2017-Aug-11 14:30N 59°01' E 010°37'1313.0
2017-Aug-11 13:31N 59°06' E 010°14'1 2.4
2017-Aug-11 13:01N 59°08' E 010°14'0 0.1
2017-Aug-11 12:30N 59°08' E 010°14'611.7
2017-Aug-11 12:01N 59°02' E 010°16'714.5
2017-Aug-11 11:31N 59°01' E 010°30'714.2
2017-Aug-11 11:00N 59°02' E 010°44'714.6
2017-Aug-11 10:31N 59°00' E 010°57'714.6
2017-Aug-11 10:01N 58°56' E 011°09'1 1.4
2017-Aug-11 09:31N 58°56' E 011°10'0 0.0
2017-Aug-11 09:00N 58°56' E 011°10'510.7
2017-Aug-11 08:30N 58°59' E 011°01'816.1
2017-Aug-11 08:00N 59°02' E 010°47'816.7
2017-Aug-11 07:30N 59°00' E 010°31'816.1
2017-Aug-11 07:00N 59°02' E 010°16'510.7
2017-Aug-11 06:30N 59°08' E 010°14'0 0.0
2017-Aug-11 06:00N 59°08' E 010°14'1 2.8
2017-Aug-11 05:30N 59°06' E 010°14'0 0.1
2017-Aug-11 04:58N 59°06' E 010°14'0 0.0
2017-Aug-11 04:28N 59°06' E 010°14'0 0.0
2017-Aug-11 03:58N 59°06' E 010°14'0 0.0
2017-Aug-11 03:29N 59°06' E 010°14'0 0.0
2017-Aug-11 02:59N 59°06' E 010°14'0 0.0
2017-Aug-11 02:29N 59°06' E 010°14'0 0.0
2017-Aug-11 02:00N 59°06' E 010°14'0 0.0
2017-Aug-11 01:30N 59°06' E 010°14'0 0.0
2017-Aug-11 01:00N 59°06' E 010°14'0 0.0
2017-Aug-11 00:28N 59°06' E 010°14'0 0.0
2017-Aug-10 23:58N 59°06' E 010°14'0 0.0
2017-Aug-10 23:28N 59°06' E 010°14'0 0.0
2017-Aug-10 22:59N 59°06' E 010°14'0 0.0
2017-Aug-10 22:29N 59°06' E 010°14'0 0.0
2017-Aug-10 21:59N 59°06' E 010°14'0 0.0
2017-Aug-10 21:30N 59°06' E 010°14'0 0.0
2017-Aug-10 21:00N 59°06' E 010°14'0 0.0
2017-Aug-10 20:30N 59°06' E 010°14'0 0.0
2017-Aug-10 19:58N 59°06' E 010°14'0 0.0
2017-Aug-10 19:30N 59°06' E 010°14'1 2.9
2017-Aug-10 19:00N 59°08' E 010°14'4 7.6
2017-Aug-10 18:31N 59°04' E 010°15'713.8
2017-Aug-10 18:01N 59°01' E 010°27'815.5
2017-Aug-10 17:31N 59°01' E 010°42'815.5
2017-Aug-10 17:01N 59°00' E 010°57'815.5
2017-Aug-10 16:30N 58°56' E 011°09'1 1.2
2017-Aug-10 16:01N 58°56' E 011°10'3 6.1
2017-Aug-10 15:30N 58°57' E 011°04'815.3
2017-Aug-10 15:00N 59°01' E 010°52'815.6
2017-Aug-10 14:30N 59°01' E 010°37'815.8
2017-Aug-10 14:00N 59°01' E 010°22'713.4
2017-Aug-10 13:30N 59°06' E 010°14'1 2.5
2017-Aug-10 13:00N 59°08' E 010°14'0 0.0
2017-Aug-10 12:31N 59°08' E 010°14'4 7.4
2017-Aug-10 12:01N 59°04' E 010°15'713.4
2017-Aug-10 11:31N 59°01' E 010°26'815.2
2017-Aug-10 11:01N 59°02' E 010°41'815.3
2017-Aug-10 10:30N 59°00' E 010°56'815.1
2017-Aug-10 10:00N 58°56' E 011°08'1 2.6
2017-Aug-10 09:31N 58°56' E 011°10'0 0.0
2017-Aug-10 09:00N 58°56' E 011°10'511.0
2017-Aug-10 08:31N 58°59' E 011°01'815.6
2017-Aug-10 08:00N 59°02' E 010°47'815.8
2017-Aug-10 07:30N 59°00' E 010°32'815.5
2017-Aug-10 07:01N 59°01' E 010°17'612.3
2017-Aug-10 06:30N 59°07' E 010°14'0 0.3
2017-Aug-10 06:00N 59°08' E 010°14'1 2.8
2017-Aug-10 05:30N 59°06' E 010°14'0 0.0
2017-Aug-10 04:59N 59°06' E 010°14'0 0.0
2017-Aug-10 04:30N 59°06' E 010°14'0 0.0
2017-Aug-10 04:00N 59°06' E 010°14'0 0.0
2017-Aug-10 03:30N 59°06' E 010°14'0 0.0
2017-Aug-10 02:58N 59°06' E 010°14'0 0.0
2017-Aug-10 02:28N 59°06' E 010°14'0 0.0
2017-Aug-10 01:58N 59°06' E 010°14'0 0.0
2017-Aug-10 01:29N 59°06' E 010°14'0 0.0
2017-Aug-10 00:59N 59°06' E 010°14'0 0.0
2017-Aug-10 00:29N 59°06' E 010°14'0 0.0
2017-Aug-10 00:00N 59°06' E 010°14'0 0.0
2017-Aug-09 23:30N 59°06' E 010°14'0 0.0
2017-Aug-09 23:00N 59°06' E 010°14'0 0.0
2017-Aug-09 22:28N 59°06' E 010°14'0 0.0
2017-Aug-09 21:58N 59°06' E 010°14'0 0.0
2017-Aug-09 21:28N 59°06' E 010°14'0 0.0
2017-Aug-09 20:59N 59°06' E 010°14'0 0.0
2017-Aug-09 20:29N 59°06' E 010°14'0 0.0
2017-Aug-09 19:59N 59°06' E 010°14'1 1.4
2017-Aug-09 19:29N 59°07' E 010°14'1 1.6
2017-Aug-09 19:00N 59°08' E 010°14'3 6.3
2017-Aug-09 18:31N 59°04' E 010°15'713.9
2017-Aug-09 18:00N 59°01' E 010°26'815.3
2017-Aug-09 17:31N 59°01' E 010°41'815.6
2017-Aug-09 17:01N 59°00' E 010°56'815.8
2017-Aug-09 16:31N 58°56' E 011°09'1 1.7
2017-Aug-09 16:01N 58°56' E 011°10'3 5.4
2017-Aug-09 15:31N 58°56' E 011°05'714.7
2017-Aug-09 15:00N 59°01' E 010°54'815.9
2017-Aug-09 14:30N 59°01' E 010°38'815.8
2017-Aug-09 14:00N 59°01' E 010°23'713.0
2017-Aug-09 13:30N 59°06' E 010°14'2 3.9
2017-Aug-09 13:00N 59°08' E 010°14'0 0.0
2017-Aug-09 12:30N 59°08' E 010°14'5 9.9
2017-Aug-09 12:00N 59°03' E 010°15'713.9
2017-Aug-09 11:30N 59°01' E 010°28'714.6
2017-Aug-09 11:01N 59°02' E 010°42'714.6
2017-Aug-09 10:30N 59°00' E 010°56'815.6
2017-Aug-09 10:00N 58°56' E 011°09'1 1.5
2017-Aug-09 09:31N 58°56' E 011°10'0 0.1
2017-Aug-09 09:00N 58°56' E 011°10'611.4
2017-Aug-09 08:31N 58°59' E 011°01'815.3
2017-Aug-09 08:00N 59°02' E 010°47'815.4
2017-Aug-09 07:31N 59°00' E 010°32'815.4
2017-Aug-09 07:01N 59°01' E 010°17'612.4
2017-Aug-09 06:30N 59°07' E 010°14'0 0.3
2017-Aug-09 06:00N 59°08' E 010°14'1 2.8
2017-Aug-09 05:30N 59°06' E 010°14'0 0.1
2017-Aug-09 04:59N 59°06' E 010°14'0 0.0
2017-Aug-09 04:30N 59°06' E 010°14'0 0.0
2017-Aug-09 04:00N 59°06' E 010°14'0 0.0
2017-Aug-09 03:30N 59°06' E 010°14'0 0.0
2017-Aug-09 02:58N 59°06' E 010°14'0 0.0
2017-Aug-09 02:28N 59°06' E 010°14'0 0.0
2017-Aug-09 01:58N 59°06' E 010°14'0 0.0
2017-Aug-09 01:29N 59°06' E 010°14'0 0.0
2017-Aug-09 00:59N 59°06' E 010°14'0 0.0
2017-Aug-09 00:29N 59°06' E 010°14'0 0.0
2017-Aug-09 00:00N 59°06' E 010°14'0 0.0
2017-Aug-08 23:30N 59°06' E 010°14'0 0.0
2017-Aug-08 23:00N 59°06' E 010°14'0 0.0
2017-Aug-08 22:28N 59°06' E 010°14'0 0.0
2017-Aug-08 21:58N 59°06' E 010°14'0 0.0
2017-Aug-08 21:28N 59°06' E 010°14'0 0.0
2017-Aug-08 20:59N 59°06' E 010°14'0 0.0
2017-Aug-08 20:29N 59°06' E 010°14'0 0.0
2017-Aug-08 19:59N 59°06' E 010°14'1 1.4
2017-Aug-08 19:31N 59°07' E 010°14'1 1.5
2017-Aug-08 19:01N 59°08' E 010°14'4 7.7
2017-Aug-08 18:31N 59°04' E 010°15'713.4
2017-Aug-08 18:01N 59°01' E 010°27'815.4
2017-Aug-08 17:31N 59°01' E 010°42'815.1
2017-Aug-08 17:01N 59°00' E 010°56'815.5
2017-Aug-08 16:30N 58°56' E 011°09'1 1.5
2017-Aug-08 16:00N 58°56' E 011°10'3 5.5
2017-Aug-08 15:30N 58°56' E 011°05'714.4
2017-Aug-08 15:01N 59°01' E 010°54'816.1
2017-Aug-08 14:31N 59°02' E 010°38'816.6
2017-Aug-08 14:01N 59°01' E 010°22'713.6
2017-Aug-08 13:30N 59°06' E 010°14'1 2.6
2017-Aug-08 13:01N 59°08' E 010°14'0 0.0
2017-Aug-08 12:31N 59°08' E 010°14'3 6.6
2017-Aug-08 12:01N 59°04' E 010°15'611.9
2017-Aug-08 11:31N 59°01' E 010°24'816.6
2017-Aug-08 11:01N 59°02' E 010°40'816.8
2017-Aug-08 10:31N 59°00' E 010°57'815.2
2017-Aug-08 10:00N 58°56' E 011°09'1 1.4
2017-Aug-08 09:30N 58°56' E 011°10'0 0.0
2017-Aug-08 09:00N 58°56' E 011°10'510.3
2017-Aug-08 08:30N 58°59' E 011°01'816.1
2017-Aug-08 08:01N 59°02' E 010°47'917.2
2017-Aug-08 07:31N 59°01' E 010°31'815.7
2017-Aug-08 07:01N 59°02' E 010°16'611.2
2017-Aug-08 06:30N 59°08' E 010°14'0 0.1
2017-Aug-08 06:01N 59°08' E 010°14'1 2.8
2017-Aug-08 05:30N 59°06' E 010°14'0 0.1
2017-Aug-08 04:59N 59°06' E 010°14'0 0.0
2017-Aug-08 04:30N 59°06' E 010°14'0 0.0
2017-Aug-08 04:00N 59°06' E 010°14'0 0.0
2017-Aug-08 03:30N 59°06' E 010°14'0 0.0
2017-Aug-08 02:58N 59°06' E 010°14'0 0.0
2017-Aug-08 02:28N 59°06' E 010°14'0 0.0
2017-Aug-08 01:58N 59°06' E 010°14'0 0.0
2017-Aug-08 01:29N 59°06' E 010°14'0 0.0
2017-Aug-08 00:59N 59°06' E 010°14'0 0.0
2017-Aug-08 00:29N 59°06' E 010°14'0 0.0
2017-Aug-08 00:00N 59°06' E 010°14'0 0.0
2017-Aug-07 23:30N 59°06' E 010°14'0 0.0
2017-Aug-07 23:00N 59°06' E 010°14'0 0.0
2017-Aug-07 22:28N 59°06' E 010°14'0 0.0
2017-Aug-07 21:58N 59°06' E 010°14'0 0.0
2017-Aug-07 21:28N 59°06' E 010°14'0 0.0
2017-Aug-07 20:59N 59°06' E 010°14'0 0.0
2017-Aug-07 20:29N 59°06' E 010°14'0 0.0
2017-Aug-07 19:59N 59°06' E 010°14'1 2.6
2017-Aug-07 19:30N 59°07' E 010°14'0 0.8
2017-Aug-07 19:00N 59°07' E 010°14'5 9.1
2017-Aug-07 18:30N 59°03' E 010°15'815.2
2017-Aug-07 18:01N 59°00' E 010°29'714.5
2017-Aug-07 17:31N 59°01' E 010°43'815.1
2017-Aug-07 17:01N 59°00' E 010°58'814.7
2017-Aug-07 16:30N 58°56' E 011°10'0 0.6
2017-Aug-07 16:00N 58°56' E 011°10'3 6.4
2017-Aug-07 15:30N 58°57' E 011°04'815.4
2017-Aug-07 15:01N 59°01' E 010°52'816.0
2017-Aug-07 14:30N 59°01' E 010°36'815.9
2017-Aug-07 14:00N 59°01' E 010°21'612.9
2017-Aug-07 13:30N 59°06' E 010°14'1 2.2
2017-Aug-07 13:00N 59°08' E 010°14'0 0.0
2017-Aug-07 12:30N 59°08' E 010°14'5 9.6
2017-Aug-07 12:01N 59°03' E 010°15'714.2
2017-Aug-07 11:30N 59°01' E 010°28'815.2
2017-Aug-07 11:01N 59°02' E 010°43'815.0
2017-Aug-07 10:30N 59°00' E 010°57'814.9
2017-Aug-07 10:00N 58°56' E 011°09'1 1.2
2017-Aug-07 09:30N 58°56' E 011°10'0 0.0
2017-Aug-07 09:00N 58°56' E 011°10'611.6
2017-Aug-07 08:30N 58°59' E 011°01'815.5
2017-Aug-07 08:00N 59°02' E 010°47'815.8
2017-Aug-07 07:30N 59°00' E 010°31'815.6
2017-Aug-07 07:00N 59°02' E 010°16'612.0
2017-Aug-07 06:30N 59°07' E 010°14'0 0.2
2017-Aug-07 06:00N 59°08' E 010°14'0 0.3
2017-Aug-07 05:30N 59°07' E 010°14'1 2.5
2017-Aug-07 05:00N 59°06' E 010°14'0 0.0
2017-Aug-07 04:30N 59°06' E 010°14'0 0.0
2017-Aug-07 04:00N 59°06' E 010°14'  
Track history (hours):
 
Tides and Currents Weather Stations Pressure Air Temp Water Temp Dewpoint Dewpoint Depression Visibility Wind Speed Wind Dir Waves Ship Positions

DucheSS Of Scandinavia

Operator: DFDS A/S

Last reported at 2017-Aug-17 03:29 UTC. Time now 2017-Aug-17 03:39 UTC.
Position N 59°06' E 010°14'.

Length 134 m; draft 5.4 m.

Type: Passenger vessel. MMSI: 219002929.

Date/timePositionNaut miles runAvg speedWind from/ knotsBaromVisibWave heightAir tempDewpointWater temp
2017-Aug-17 03:29N 59°06' E 010°14'0 0.0
2017-Aug-17 02:59N 59°06' E 010°14'0 0.0
2017-Aug-17 02:30N 59°06' E 010°14'0 0.0
2017-Aug-17 02:00N 59°06' E 010°14'0 0.0
2017-Aug-17 01:30N 59°06' E 010°14'0 0.0
2017-Aug-17 00:58N 59°06' E 010°14'0 0.0
2017-Aug-17 00:25N 59°06' E 010°14'0 0.0
2017-Aug-16 23:58N 59°06' E 010°14'0 0.0
2017-Aug-16 23:29N 59°06' E 010°14'0 0.0
2017-Aug-16 22:59N 59°06' E 010°14'0 0.0
2017-Aug-16 22:29N 59°06' E 010°14'0 0.0
2017-Aug-16 22:00N 59°06' E 010°14'0 0.0
2017-Aug-16 21:30N 59°06' E 010°14'0 0.0
2017-Aug-16 21:00N 59°06' E 010°14'0 0.0
2017-Aug-16 20:25N 59°06' E 010°14'0 0.0
2017-Aug-16 19:58N 59°06' E 010°14'0 0.2
2017-Aug-16 19:30N 59°06' E 010°14'1 2.3
2017-Aug-16 18:55N 59°08' E 010°14'4 8.7
2017-Aug-16 18:30N 59°04' E 010°15'714.2
2017-Aug-16 18:00N 59°01' E 010°27'815.8
2017-Aug-16 17:31N 59°01' E 010°42'815.3
2017-Aug-16 17:00N 59°00' E 010°57'715.0
2017-Aug-16 16:31N 58°56' E 011°09'1 1.3
2017-Aug-16 16:00N 58°56' E 011°10'4 7.1
2017-Aug-16 15:30N 58°57' E 011°04'714.7
2017-Aug-16 15:01N 59°01' E 010°52'715.0
2017-Aug-16 14:31N 59°01' E 010°37'816.0
2017-Aug-16 14:00N 59°01' E 010°21'713.4
2017-Aug-16 13:30N 59°06' E 010°14'1 2.3
2017-Aug-16 12:58N 59°08' E 010°14'0 0.2
2017-Aug-16 12:31N 59°07' E 010°14'611.1
2017-Aug-16 12:01N 59°02' E 010°16'714.3
2017-Aug-16 11:30N 59°00' E 010°29'714.2
2017-Aug-16 11:01N 59°01' E 010°43'714.1
2017-Aug-16 10:31N 59°00' E 010°57'714.8
2017-Aug-16 10:00N 58°56' E 011°08'1 2.0
2017-Aug-16 09:30N 58°56' E 011°10'0 0.0
2017-Aug-16 09:01N 58°56' E 011°10'612.2
2017-Aug-16 08:30N 58°59' E 010°60'815.3
2017-Aug-16 08:01N 59°02' E 010°46'815.7
2017-Aug-16 07:30N 59°00' E 010°31'815.2
2017-Aug-16 07:00N 59°02' E 010°16'611.0
2017-Aug-16 06:28N 59°08' E 010°14'0 0.0
2017-Aug-16 06:00N 59°08' E 010°14'1 2.6
2017-Aug-16 05:27N 59°06' E 010°14'0 0.0
2017-Aug-16 05:00N 59°06' E 010°14'0 0.0
2017-Aug-16 04:28N 59°06' E 010°14'0 0.0
2017-Aug-16 03:58N 59°06' E 010°14'0 0.0
2017-Aug-16 03:28N 59°06' E 010°14'0 0.0
2017-Aug-16 02:53N 59°06' E 010°14'0 0.0
2017-Aug-16 02:29N 59°06' E 010°14'0 0.0
2017-Aug-16 01:59N 59°06' E 010°14'0 0.0
2017-Aug-16 01:24N 59°06' E 010°14'0 0.0
2017-Aug-16 00:54N 59°06' E 010°14'0 0.0
2017-Aug-16 00:30N 59°06' E 010°14'0 0.0
2017-Aug-15 23:52N 59°06' E 010°14'0 0.0
2017-Aug-15 23:28N 59°06' E 010°14'0 0.0
2017-Aug-15 22:55N 59°06' E 010°14'0 0.0
2017-Aug-15 22:26N 59°06' E 010°14'0 0.0
2017-Aug-15 21:59N 59°06' E 010°14'0 0.0
2017-Aug-15 21:23N 59°06' E 010°14'0 0.0
2017-Aug-15 21:00N 59°06' E 010°14'0 0.0
2017-Aug-15 20:30N 59°06' E 010°14'0 0.0
2017-Aug-15 19:57N 59°06' E 010°14'1 2.8
2017-Aug-15 19:30N 59°07' E 010°14'0 0.4
2017-Aug-15 19:01N 59°08' E 010°14'3 6.4
2017-Aug-15 18:30N 59°04' E 010°15'713.5
2017-Aug-15 18:00N 59°01' E 010°26'815.8
2017-Aug-15 17:31N 59°01' E 010°41'815.5
2017-Aug-15 17:01N 59°00' E 010°56'815.8
2017-Aug-15 16:30N 58°56' E 011°09'1 1.5
2017-Aug-15 16:00N 58°56' E 011°10'4 7.8
2017-Aug-15 15:30N 58°57' E 011°03'815.2
2017-Aug-15 15:00N 59°01' E 010°50'815.5
2017-Aug-15 14:30N 59°01' E 010°35'815.4
2017-Aug-15 14:00N 59°01' E 010°21'612.6
2017-Aug-15 13:30N 59°06' E 010°14'1 2.6
2017-Aug-15 13:00N 59°08' E 010°14'0 0.1
2017-Aug-15 12:30N 59°08' E 010°14'510.8
2017-Aug-15 12:01N 59°02' E 010°15'713.6
2017-Aug-15 11:30N 59°01' E 010°28'714.4
2017-Aug-15 11:00N 59°02' E 010°42'714.6
2017-Aug-15 10:30N 59°00' E 010°56'814.9
2017-Aug-15 10:00N 58°56' E 011°08'1 2.0
2017-Aug-15 09:30N 58°56' E 011°10'0 0.0
2017-Aug-15 09:01N 58°56' E 011°10'510.8
2017-Aug-15 08:30N 58°59' E 011°01'714.9
2017-Aug-15 08:00N 59°02' E 010°48'815.2
2017-Aug-15 07:30N 59°01' E 010°33'815.6
2017-Aug-15 07:00N 59°01' E 010°18'612.3
2017-Aug-15 06:30N 59°07' E 010°14'0 0.8
2017-Aug-15 06:00N 59°08' E 010°14'1 2.9
2017-Aug-15 05:30N 59°06' E 010°14'0 0.1
2017-Aug-15 05:00N 59°06' E 010°14'0 0.0
2017-Aug-15 04:30N 59°06' E 010°14'0 0.0
2017-Aug-15 04:00N 59°06' E 010°14'0 0.0
2017-Aug-15 03:25N 59°06' E 010°14'0 0.0
2017-Aug-15 02:58N 59°06' E 010°14'0 0.0
2017-Aug-15 02:28N 59°06' E 010°14'0 0.0
2017-Aug-15 01:59N 59°06' E 010°14'0 0.0
2017-Aug-15 01:26N 59°06' E 010°14'0 0.0
2017-Aug-15 00:59N 59°06' E 010°14'0 0.0
2017-Aug-15 00:30N 59°06' E 010°14'0 0.0
2017-Aug-15 00:00N 59°06' E 010°14'0 0.0
2017-Aug-14 23:30N 59°06' E 010°14'0 0.0
2017-Aug-14 22:58N 59°06' E 010°14'0 0.0
2017-Aug-14 22:28N 59°06' E 010°14'0 0.0
2017-Aug-14 21:58N 59°06' E 010°14'0 0.0
2017-Aug-14 21:23N 59°06' E 010°14'0 0.0
2017-Aug-14 20:59N 59°06' E 010°14'0 0.0
2017-Aug-14 20:26N 59°06' E 010°14'0 0.0
2017-Aug-14 20:00N 59°06' E 010°14'0 0.6
2017-Aug-14 19:30N 59°06' E 010°14'1 2.3
2017-Aug-14 19:01N 59°08' E 010°14'4 7.8
2017-Aug-14 18:30N 59°04' E 010°15'714.2
2017-Aug-14 18:01N 59°01' E 010°27'815.9
2017-Aug-14 17:31N 59°01' E 010°43'815.8
2017-Aug-14 17:01N 59°00' E 010°58'714.4
2017-Aug-14 16:30N 58°56' E 011°10'0 0.6
2017-Aug-14 16:01N 58°56' E 011°10'3 5.4
2017-Aug-14 15:30N 58°56' E 011°05'714.4
2017-Aug-14 15:01N 59°01' E 010°54'816.1
2017-Aug-14 14:30N 59°01' E 010°38'816.4
2017-Aug-14 14:00N 59°01' E 010°22'713.5
2017-Aug-14 13:31N 59°06' E 010°14'1 2.9
2017-Aug-14 13:00N 59°08' E 010°14'0 0.1
2017-Aug-14 12:30N 59°08' E 010°14'611.1
2017-Aug-14 12:01N 59°02' E 010°16'714.0
2017-Aug-14 11:30N 59°01' E 010°29'714.9
2017-Aug-14 11:01N 59°02' E 010°43'714.8
2017-Aug-14 10:31N 59°00' E 010°57'714.5
2017-Aug-14 10:00N 58°56' E 011°09'1 1.4
2017-Aug-14 09:30N 58°56' E 011°10'0 0.0
2017-Aug-14 09:00N 58°56' E 011°10'611.1
2017-Aug-14 08:30N 58°59' E 011°01'815.3
2017-Aug-14 08:01N 59°02' E 010°47'815.2
2017-Aug-14 07:31N 59°01' E 010°33'816.0
2017-Aug-14 07:00N 59°01' E 010°17'612.3
2017-Aug-14 06:30N 59°07' E 010°14'0 0.5
2017-Aug-14 06:00N 59°08' E 010°14'1 2.8
2017-Aug-14 05:31N 59°06' E 010°14'0 0.1
2017-Aug-14 04:59N 59°06' E 010°14'0 0.0
2017-Aug-14 04:27N 59°06' E 010°14'0 0.0
2017-Aug-14 04:00N 59°06' E 010°14'0 0.0
2017-Aug-14 03:27N 59°06' E 010°14'0 0.0
2017-Aug-14 02:58N 59°06' E 010°14'0 0.0
2017-Aug-14 02:28N 59°06' E 010°14'0 0.0
2017-Aug-14 01:58N 59°06' E 010°14'0 0.0
2017-Aug-14 01:29N 59°06' E 010°14'0 0.0
2017-Aug-14 00:59N 59°06' E 010°14'0 0.0
2017-Aug-14 00:29N 59°06' E 010°14'0 0.0
2017-Aug-14 00:00N 59°06' E 010°14'0 0.0
2017-Aug-13 23:30N 59°06' E 010°14'0 0.0
2017-Aug-13 23:00N 59°06' E 010°14'0 0.0
2017-Aug-13 22:28N 59°06' E 010°14'0 0.0
2017-Aug-13 21:58N 59°06' E 010°14'0 0.0
2017-Aug-13 21:28N 59°06' E 010°14'0 0.0
2017-Aug-13 20:59N 59°06' E 010°14'0 0.0
2017-Aug-13 20:29N 59°06' E 010°14'0 0.0
2017-Aug-13 19:59N 59°06' E 010°14'1 2.0
2017-Aug-13 19:30N 59°07' E 010°14'1 1.0
2017-Aug-13 19:00N 59°08' E 010°14'5 9.6
2017-Aug-13 18:30N 59°03' E 010°15'815.2
2017-Aug-13 18:00N 59°01' E 010°29'816.7
2017-Aug-13 17:30N 59°02' E 010°45'816.1
2017-Aug-13 17:00N 58°59' E 011°00'612.1
2017-Aug-13 16:31N 58°56' E 011°10'0 0.0
2017-Aug-13 16:01N 58°56' E 011°10'4 7.0
2017-Aug-13 15:31N 58°57' E 011°04'815.4
2017-Aug-13 15:01N 59°01' E 010°51'815.8
2017-Aug-13 14:31N 59°01' E 010°36'816.1
2017-Aug-13 14:01N 59°01' E 010°20'612.6
2017-Aug-13 13:30N 59°07' E 010°14'1 2.1
2017-Aug-13 13:01N 59°08' E 010°14'0 0.0
2017-Aug-13 12:31N 59°08' E 010°14'5 9.4
2017-Aug-13 12:01N 59°03' E 010°15'713.6
2017-Aug-13 11:31N 59°01' E 010°28'815.1
2017-Aug-13 11:01N 59°02' E 010°42'815.4
2017-Aug-13 10:30N 59°00' E 010°57'715.0
2017-Aug-13 10:01N 58°56' E 011°09'1 1.6
2017-Aug-13 09:30N 58°56' E 011°10'0 0.1
2017-Aug-13 09:00N 58°56' E 011°10'612.2
2017-Aug-13 08:31N 58°59' E 011°00'815.7
2017-Aug-13 08:01N 59°02' E 010°46'815.4
2017-Aug-13 07:31N 59°00' E 010°31'714.6
2017-Aug-13 07:01N 59°01' E 010°17'612.4
2017-Aug-13 06:31N 59°07' E 010°14'0 0.4
2017-Aug-13 06:01N 59°08' E 010°14'1 2.9
2017-Aug-13 05:31N 59°06' E 010°14'0 0.1
2017-Aug-13 04:58N 59°06' E 010°14'0 0.0
2017-Aug-13 04:28N 59°06' E 010°14'0 0.0
2017-Aug-13 03:59N 59°06' E 010°14'0 0.0
2017-Aug-13 03:29N 59°06' E 010°14'0 0.0
2017-Aug-13 02:59N 59°06' E 010°14'0 0.0
2017-Aug-13 02:30N 59°06' E 010°14'0 0.0
2017-Aug-13 02:00N 59°06' E 010°14'0 0.0
2017-Aug-13 01:30N 59°06' E 010°14'0 0.0
2017-Aug-13 00:58N 59°06' E 010°14'0 0.0
2017-Aug-13 00:28N 59°06' E 010°14'0 0.0
2017-Aug-12 23:58N 59°06' E 010°14'0 0.0
2017-Aug-12 23:29N 59°06' E 010°14'0 0.0
2017-Aug-12 22:59N 59°06' E 010°14'0 0.0
2017-Aug-12 22:29N 59°06' E 010°14'0 0.0
2017-Aug-12 22:00N 59°06' E 010°14'0 0.0
2017-Aug-12 21:30N 59°06' E 010°14'0 0.0
2017-Aug-12 21:00N 59°06' E 010°14'0 0.0
2017-Aug-12 20:28N 59°06' E 010°14'0 0.0
2017-Aug-12 19:58N 59°06' E 010°14'0 0.7
2017-Aug-12 19:30N 59°06' E 010°14'1 2.2
2017-Aug-12 19:00N 59°08' E 010°14'4 7.5
2017-Aug-12 18:31N 59°04' E 010°15'713.4
2017-Aug-12 18:01N 59°01' E 010°26'815.3
2017-Aug-12 17:31N 59°01' E 010°41'815.3
2017-Aug-12 17:01N 59°00' E 010°56'815.8
2017-Aug-12 16:31N 58°56' E 011°08'1 1.8
2017-Aug-12 16:01N 58°56' E 011°10'3 6.8
2017-Aug-12 15:31N 58°57' E 011°04'815.0
2017-Aug-12 15:01N 59°01' E 010°52'815.5
2017-Aug-12 14:30N 59°01' E 010°37'816.0
2017-Aug-12 14:01N 59°01' E 010°21'612.8
2017-Aug-12 13:31N 59°06' E 010°14'1 2.8
2017-Aug-12 13:00N 59°08' E 010°14'0 0.0
2017-Aug-12 12:31N 59°08' E 010°14'5 9.9
2017-Aug-12 12:01N 59°03' E 010°15'714.1
2017-Aug-12 11:31N 59°01' E 010°29'715.0
2017-Aug-12 11:01N 59°02' E 010°43'715.0
2017-Aug-12 10:30N 59°00' E 010°57'714.9
2017-Aug-12 10:01N 58°56' E 011°09'1 1.0
2017-Aug-12 09:31N 58°56' E 011°10'0 0.0
2017-Aug-12 09:01N 58°56' E 011°10'5 9.9
2017-Aug-12 08:31N 58°58' E 011°02'815.7
2017-Aug-12 08:01N 59°02' E 010°48'816.3
2017-Aug-12 07:30N 59°01' E 010°32'816.2
2017-Aug-12 07:01N 59°02' E 010°16'612.0
2017-Aug-12 06:30N 59°07' E 010°14'0 0.3
2017-Aug-12 06:00N 59°08' E 010°14'0 0.7
2017-Aug-12 05:30N 59°07' E 010°14'1 2.1
2017-Aug-12 04:58N 59°06' E 010°14'0 0.0
2017-Aug-12 04:29N 59°06' E 010°14'0 0.0
2017-Aug-12 03:59N 59°06' E 010°14'0 0.0
2017-Aug-12 03:29N 59°06' E 010°14'0 0.0
2017-Aug-12 03:00N 59°06' E 010°14'0 0.0
2017-Aug-12 02:30N 59°06' E 010°14'0 0.0
2017-Aug-12 02:00N 59°06' E 010°14'0 0.0
2017-Aug-12 01:28N 59°06' E 010°14'0 0.0
2017-Aug-12 00:58N 59°06' E 010°14'0 0.0
2017-Aug-12 00:28N 59°06' E 010°14'0 0.0
2017-Aug-11 23:59N 59°06' E 010°14'0 0.0
2017-Aug-11 23:29N 59°06' E 010°14'0 0.0
2017-Aug-11 22:59N 59°06' E 010°14'0 0.0
2017-Aug-11 22:30N 59°06' E 010°14'0 0.0
2017-Aug-11 22:00N 59°06' E 010°14'0 0.0
2017-Aug-11 21:30N 59°06' E 010°14'0 0.0
2017-Aug-11 20:58N 59°06' E 010°14'0 0.0
2017-Aug-11 20:28N 59°06' E 010°14'0 0.0
2017-Aug-11 20:01N 59°06' E 010°14'1 1.6
2017-Aug-11 19:30N 59°07' E 010°14'1 1.3
2017-Aug-11 19:00N 59°08' E 010°14'4 7.6
2017-Aug-11 18:30N 59°04' E 010°15'713.7
2017-Aug-11 18:01N 59°01' E 010°27'815.2
2017-Aug-11 17:30N 59°01' E 010°42'815.4
2017-Aug-11 17:01N 59°00' E 010°57'815.7
2017-Aug-11 16:31N 58°56' E 011°09'1 1.2
2017-Aug-11 16:01N 58°56' E 011°10'3 5.9
2017-Aug-11 15:30N 58°57' E 011°05'815.4
2017-Aug-11 15:01N 59°01' E 010°52'815.9
2017-Aug-11 14:30N 59°01' E 010°37'1313.0
2017-Aug-11 13:31N 59°06' E 010°14'1 2.4
2017-Aug-11 13:01N 59°08' E 010°14'0 0.1
2017-Aug-11 12:30N 59°08' E 010°14'611.7
2017-Aug-11 12:01N 59°02' E 010°16'714.5
2017-Aug-11 11:31N 59°01' E 010°30'714.2
2017-Aug-11 11:00N 59°02' E 010°44'714.6
2017-Aug-11 10:31N 59°00' E 010°57'714.6
2017-Aug-11 10:01N 58°56' E 011°09'1 1.4
2017-Aug-11 09:31N 58°56' E 011°10'0 0.0
2017-Aug-11 09:00N 58°56' E 011°10'510.7
2017-Aug-11 08:30N 58°59' E 011°01'816.1
2017-Aug-11 08:00N 59°02' E 010°47'816.7
2017-Aug-11 07:30N 59°00' E 010°31'816.1
2017-Aug-11 07:00N 59°02' E 010°16'510.7
2017-Aug-11 06:30N 59°08' E 010°14'0 0.0
2017-Aug-11 06:00N 59°08' E 010°14'1 2.8
2017-Aug-11 05:30N 59°06' E 010°14'0 0.1
2017-Aug-11 04:58N 59°06' E 010°14'0 0.0
2017-Aug-11 04:28N 59°06' E 010°14'0 0.0
2017-Aug-11 03:58N 59°06' E 010°14'0 0.0
2017-Aug-11 03:29N 59°06' E 010°14'0 0.0
2017-Aug-11 02:59N 59°06' E 010°14'0 0.0
2017-Aug-11 02:29N 59°06' E 010°14'0 0.0
2017-Aug-11 02:00N 59°06' E 010°14'0 0.0
2017-Aug-11 01:30N 59°06' E 010°14'0 0.0
2017-Aug-11 01:00N 59°06' E 010°14'0 0.0
2017-Aug-11 00:28N 59°06' E 010°14'0 0.0
2017-Aug-10 23:58N 59°06' E 010°14'0 0.0
2017-Aug-10 23:28N 59°06' E 010°14'0 0.0
2017-Aug-10 22:59N 59°06' E 010°14'0 0.0
2017-Aug-10 22:29N 59°06' E 010°14'0 0.0
2017-Aug-10 21:59N 59°06' E 010°14'0 0.0
2017-Aug-10 21:30N 59°06' E 010°14'0 0.0
2017-Aug-10 21:00N 59°06' E 010°14'0 0.0
2017-Aug-10 20:30N 59°06' E 010°14'0 0.0
2017-Aug-10 19:58N 59°06' E 010°14'0 0.0
2017-Aug-10 19:30N 59°06' E 010°14'1 2.9
2017-Aug-10 19:00N 59°08' E 010°14'4 7.6
2017-Aug-10 18:31N 59°04' E 010°15'713.8
2017-Aug-10 18:01N 59°01' E 010°27'815.5
2017-Aug-10 17:31N 59°01' E 010°42'815.5
2017-Aug-10 17:01N 59°00' E 010°57'815.5
2017-Aug-10 16:30N 58°56' E 011°09'1 1.2
2017-Aug-10 16:01N 58°56' E 011°10'3 6.1
2017-Aug-10 15:30N 58°57' E 011°04'815.3
2017-Aug-10 15:00N 59°01' E 010°52'815.6
2017-Aug-10 14:30N 59°01' E 010°37'815.8
2017-Aug-10 14:00N 59°01' E 010°22'713.4
2017-Aug-10 13:30N 59°06' E 010°14'1 2.5
2017-Aug-10 13:00N 59°08' E 010°14'0 0.0
2017-Aug-10 12:31N 59°08' E 010°14'4 7.4
2017-Aug-10 12:01N 59°04' E 010°15'713.4
2017-Aug-10 11:31N 59°01' E 010°26'815.2
2017-Aug-10 11:01N 59°02' E 010°41'815.3
2017-Aug-10 10:30N 59°00' E 010°56'815.1
2017-Aug-10 10:00N 58°56' E 011°08'1 2.6
2017-Aug-10 09:31N 58°56' E 011°10'0 0.0
2017-Aug-10 09:00N 58°56' E 011°10'511.0
2017-Aug-10 08:31N 58°59' E 011°01'815.6
2017-Aug-10 08:00N 59°02' E 010°47'815.8
2017-Aug-10 07:30N 59°00' E 010°32'815.5
2017-Aug-10 07:01N 59°01' E 010°17'612.3
2017-Aug-10 06:30N 59°07' E 010°14'0 0.3
2017-Aug-10 06:00N 59°08' E 010°14'1 2.8
2017-Aug-10 05:30N 59°06' E 010°14'0 0.0
2017-Aug-10 04:59N 59°06' E 010°14'0 0.0
2017-Aug-10 04:30N 59°06' E 010°14'0 0.0
2017-Aug-10 04:00N 59°06' E 010°14'0 0.0
2017-Aug-10 03:30N 59°06' E 010°14'0 0.0
2017-Aug-10 02:58N 59°06' E 010°14'0 0.0
2017-Aug-10 02:28N 59°06' E 010°14'0 0.0
2017-Aug-10 01:58N 59°06' E 010°14'0 0.0
2017-Aug-10 01:29N 59°06' E 010°14'0 0.0
2017-Aug-10 00:59N 59°06' E 010°14'0 0.0
2017-Aug-10 00:29N 59°06' E 010°14'0 0.0
2017-Aug-10 00:00N 59°06' E 010°14'0 0.0
2017-Aug-09 23:30N 59°06' E 010°14'0 0.0
2017-Aug-09 23:00N 59°06' E 010°14'0 0.0
2017-Aug-09 22:28N 59°06' E 010°14'0 0.0
2017-Aug-09 21:58N 59°06' E 010°14'0 0.0
2017-Aug-09 21:28N 59°06' E 010°14'0 0.0
2017-Aug-09 20:59N 59°06' E 010°14'0 0.0
2017-Aug-09 20:29N 59°06' E 010°14'0 0.0
2017-Aug-09 19:59N 59°06' E 010°14'1 1.4
2017-Aug-09 19:29N 59°07' E 010°14'1 1.6
2017-Aug-09 19:00N 59°08' E 010°14'3 6.3
2017-Aug-09 18:31N 59°04' E 010°15'713.9
2017-Aug-09 18:00N 59°01' E 010°26'815.3
2017-Aug-09 17:31N 59°01' E 010°41'815.6
2017-Aug-09 17:01N 59°00' E 010°56'815.8
2017-Aug-09 16:31N 58°56' E 011°09'1 1.7
2017-Aug-09 16:01N 58°56' E 011°10'3 5.4
2017-Aug-09 15:31N 58°56' E 011°05'714.7
2017-Aug-09 15:00N 59°01' E 010°54'815.9
2017-Aug-09 14:30N 59°01' E 010°38'815.8
2017-Aug-09 14:00N 59°01' E 010°23'713.0
2017-Aug-09 13:30N 59°06' E 010°14'2 3.9
2017-Aug-09 13:00N 59°08' E 010°14'0 0.0
2017-Aug-09 12:30N 59°08' E 010°14'5 9.9
2017-Aug-09 12:00N 59°03' E 010°15'713.9
2017-Aug-09 11:30N 59°01' E 010°28'714.6
2017-Aug-09 11:01N 59°02' E 010°42'714.6
2017-Aug-09 10:30N 59°00' E 010°56'815.6
2017-Aug-09 10:00N 58°56' E 011°09'1 1.5
2017-Aug-09 09:31N 58°56' E 011°10'0 0.1
2017-Aug-09 09:00N 58°56' E 011°10'611.4
2017-Aug-09 08:31N 58°59' E 011°01'815.3
2017-Aug-09 08:00N 59°02' E 010°47'815.4
2017-Aug-09 07:31N 59°00' E 010°32'815.4
2017-Aug-09 07:01N 59°01' E 010°17'612.4
2017-Aug-09 06:30N 59°07' E 010°14'0 0.3
2017-Aug-09 06:00N 59°08' E 010°14'1 2.8
2017-Aug-09 05:30N 59°06' E 010°14'0 0.1
2017-Aug-09 04:59N 59°06' E 010°14'0 0.0
2017-Aug-09 04:30N 59°06' E 010°14'0 0.0
2017-Aug-09 04:00N 59°06' E 010°14'0 0.0
2017-Aug-09 03:30N 59°06' E 010°14'0 0.0
2017-Aug-09 02:58N 59°06' E 010°14'0 0.0
2017-Aug-09 02:28N 59°06' E 010°14'0 0.0
2017-Aug-09 01:58N 59°06' E 010°14'0 0.0
2017-Aug-09 01:29N 59°06' E 010°14'0 0.0
2017-Aug-09 00:59N 59°06' E 010°14'0 0.0
2017-Aug-09 00:29N 59°06' E 010°14'0 0.0
2017-Aug-09 00:00N 59°06' E 010°14'0 0.0
2017-Aug-08 23:30N 59°06' E 010°14'0 0.0
2017-Aug-08 23:00N 59°06' E 010°14'0 0.0
2017-Aug-08 22:28N 59°06' E 010°14'0 0.0
2017-Aug-08 21:58N 59°06' E 010°14'0 0.0
2017-Aug-08 21:28N 59°06' E 010°14'0 0.0
2017-Aug-08 20:59N 59°06' E 010°14'0 0.0
2017-Aug-08 20:29N 59°06' E 010°14'0 0.0
2017-Aug-08 19:59N 59°06' E 010°14'1 1.4
2017-Aug-08 19:31N 59°07' E 010°14'1 1.5
2017-Aug-08 19:01N 59°08' E 010°14'4 7.7
2017-Aug-08 18:31N 59°04' E 010°15'713.4
2017-Aug-08 18:01N 59°01' E 010°27'815.4
2017-Aug-08 17:31N 59°01' E 010°42'815.1
2017-Aug-08 17:01N 59°00' E 010°56'815.5
2017-Aug-08 16:30N 58°56' E 011°09'1 1.5
2017-Aug-08 16:00N 58°56' E 011°10'3 5.5
2017-Aug-08 15:30N 58°56' E 011°05'714.4
2017-Aug-08 15:01N 59°01' E 010°54'816.1
2017-Aug-08 14:31N 59°02' E 010°38'816.6
2017-Aug-08 14:01N 59°01' E 010°22'713.6
2017-Aug-08 13:30N 59°06' E 010°14'1 2.6
2017-Aug-08 13:01N 59°08' E 010°14'0 0.0
2017-Aug-08 12:31N 59°08' E 010°14'3 6.6
2017-Aug-08 12:01N 59°04' E 010°15'611.9
2017-Aug-08 11:31N 59°01' E 010°24'816.6
2017-Aug-08 11:01N 59°02' E 010°40'816.8
2017-Aug-08 10:31N 59°00' E 010°57'815.2
2017-Aug-08 10:00N 58°56' E 011°09'1 1.4
2017-Aug-08 09:30N 58°56' E 011°10'0 0.0
2017-Aug-08 09:00N 58°56' E 011°10'510.3
2017-Aug-08 08:30N 58°59' E 011°01'816.1
2017-Aug-08 08:01N 59°02' E 010°47'917.2
2017-Aug-08 07:31N 59°01' E 010°31'815.7
2017-Aug-08 07:01N 59°02' E 010°16'611.2
2017-Aug-08 06:30N 59°08' E 010°14'0 0.1
2017-Aug-08 06:01N 59°08' E 010°14'1 2.8
2017-Aug-08 05:30N 59°06' E 010°14'0 0.1
2017-Aug-08 04:59N 59°06' E 010°14'0 0.0
2017-Aug-08 04:30N 59°06' E 010°14'0 0.0
2017-Aug-08 04:00N 59°06' E 010°14'0 0.0
2017-Aug-08 03:30N 59°06' E 010°14'0 0.0
2017-Aug-08 02:58N 59°06' E 010°14'0 0.0
2017-Aug-08 02:28N 59°06' E 010°14'0 0.0
2017-Aug-08 01:58N 59°06' E 010°14'0 0.0
2017-Aug-08 01:29N 59°06' E 010°14'0 0.0
2017-Aug-08 00:59N 59°06' E 010°14'0 0.0
2017-Aug-08 00:29N 59°06' E 010°14'0 0.0
2017-Aug-08 00:00N 59°06' E 010°14'0 0.0
2017-Aug-07 23:30N 59°06' E 010°14'0 0.0
2017-Aug-07 23:00N 59°06' E 010°14'0 0.0
2017-Aug-07 22:28N 59°06' E 010°14'0 0.0
2017-Aug-07 21:58N 59°06' E 010°14'0 0.0
2017-Aug-07 21:28N 59°06' E 010°14'0 0.0
2017-Aug-07 20:59N 59°06' E 010°14'0 0.0
2017-Aug-07 20:29N 59°06' E 010°14'0 0.0
2017-Aug-07 19:59N 59°06' E 010°14'1 2.6
2017-Aug-07 19:30N 59°07' E 010°14'0 0.8
2017-Aug-07 19:00N 59°07' E 010°14'5 9.1
2017-Aug-07 18:30N 59°03' E 010°15'815.2
2017-Aug-07 18:01N 59°00' E 010°29'714.5
2017-Aug-07 17:31N 59°01' E 010°43'815.1
2017-Aug-07 17:01N 59°00' E 010°58'814.7
2017-Aug-07 16:30N 58°56' E 011°10'0 0.6
2017-Aug-07 16:00N 58°56' E 011°10'3 6.4
2017-Aug-07 15:30N 58°57' E 011°04'815.4
2017-Aug-07 15:01N 59°01' E 010°52'816.0
2017-Aug-07 14:30N 59°01' E 010°36'815.9
2017-Aug-07 14:00N 59°01' E 010°21'612.9
2017-Aug-07 13:30N 59°06' E 010°14'1 2.2
2017-Aug-07 13:00N 59°08' E 010°14'0 0.0
2017-Aug-07 12:30N 59°08' E 010°14'5 9.6
2017-Aug-07 12:01N 59°03' E 010°15'714.2
2017-Aug-07 11:30N 59°01' E 010°28'815.2
2017-Aug-07 11:01N 59°02' E 010°43'815.0
2017-Aug-07 10:30N 59°00' E 010°57'814.9
2017-Aug-07 10:00N 58°56' E 011°09'1 1.2
2017-Aug-07 09:30N 58°56' E 011°10'0 0.0
2017-Aug-07 09:00N 58°56' E 011°10'611.6
2017-Aug-07 08:30N 58°59' E 011°01'815.5
2017-Aug-07 08:00N 59°02' E 010°47'815.8
2017-Aug-07 07:30N 59°00' E 010°31'815.6
2017-Aug-07 07:00N 59°02' E 010°16'612.0
2017-Aug-07 06:30N 59°07' E 010°14'0 0.2
2017-Aug-07 06:00N 59°08' E 010°14'0 0.3
2017-Aug-07 05:30N 59°07' E 010°14'1 2.5
2017-Aug-07 05:00N 59°06' E 010°14'0 0.0
2017-Aug-07 04:30N 59°06' E 010°14'0 0.0
2017-Aug-07 04:00N 59°06' E 010°14'  

Dump ship's entire track history